Time;durP1;ratioP1;P1;durP2;ratioP2;P2;SDS_P1;SDS_P2;PMS_P1;PMS_P2;Temp;Humidity;BMP_temperature;BMP_pressure;BME280_temperature;BME280_humidity;BME280_pressure;Samples;Min_cycle;Max_cycle;Signal;HPM_P1;HPM_P2
2021/07/31 00:00:59;;;;;;;11.93;3.00;;;15.00;99.90;;;;;;5129827;28;20497;-83
2021/07/31 00:03:26;;;;;;;7.25;2.88;;;15.00;99.90;;;;;;5147142;28;20035;-84
2021/07/31 00:05:53;;;;;;;7.95;2.85;;;15.00;99.90;;;;;;5130256;28;20042;-84
2021/07/31 00:08:20;;;;;;;10.07;2.65;;;15.00;99.90;;;;;;5147164;28;20089;-84
2021/07/31 00:10:47;;;;;;;8.50;2.75;;;15.00;99.90;;;;;;5129889;28;20043;-84
2021/07/31 00:13:14;;;;;;;7.55;2.70;;;15.00;99.90;;;;;;5130606;28;20042;-84
2021/07/31 00:15:42;;;;;;;6.53;2.40;;;15.00;99.90;;;;;;5147957;28;20034;-83
2021/07/31 00:18:10;;;;;;;8.07;2.90;;;15.00;99.90;;;;;;5147349;28;20107;-83
2021/07/31 00:20:37;;;;;;;6.97;2.90;;;15.00;99.90;;;;;;5129763;28;20466;-83
2021/07/31 00:23:05;;;;;;;10.25;3.00;;;15.00;99.90;;;;;;5096907;28;20044;-83
2021/07/31 00:25:32;;;;;;;8.32;2.92;;;15.10;99.90;;;;;;5148219;28;20515;-83
2021/07/31 00:27:59;;;;;;;6.32;2.53;;;15.00;99.90;;;;;;5146572;28;20040;-83
2021/07/31 00:30:28;;;;;;;7.60;2.97;;;15.00;99.90;;;;;;5141331;28;20047;-83
2021/07/31 00:32:56;;;;;;;7.93;2.78;;;15.00;99.90;;;;;;5129738;28;20423;-83
2021/07/31 00:35:23;;;;;;;18.42;2.65;;;15.00;99.90;;;;;;5147263;28;20043;-83
2021/07/31 00:37:50;;;;;;;9.10;2.85;;;15.00;99.90;;;;;;5129640;28;20032;-84
2021/07/31 00:40:16;;;;;;;10.30;2.60;;;15.00;99.90;;;;;;5130048;28;20036;-84
2021/07/31 00:42:43;;;;;;;7.65;2.67;;;15.00;99.90;;;;;;5129779;28;20109;-82
2021/07/31 00:45:12;;;;;;;6.03;2.67;;;15.00;99.90;;;;;;5149424;28;20079;-82
2021/07/31 00:47:40;;;;;;;8.75;2.60;;;15.00;99.90;;;;;;5133191;28;20080;-83
2021/07/31 00:50:07;;;;;;;8.95;2.55;;;15.00;99.90;;;;;;5150400;28;20469;-83
2021/07/31 00:52:35;;;;;;;7.32;2.67;;;15.00;99.90;;;;;;5133739;28;20494;-83
2021/07/31 00:55:03;;;;;;;9.95;3.05;;;15.00;99.90;;;;;;5116467;28;20084;-82
2021/07/31 00:57:31;;;;;;;7.82;2.70;;;14.90;99.90;;;;;;5150306;28;20028;-81
2021/07/31 00:59:58;;;;;;;10.57;3.33;;;14.90;99.90;;;;;;5133248;28;20042;-81
2021/07/31 01:02:25;;;;;;;6.88;2.17;;;14.90;99.90;;;;;;5133696;28;20547;-81
2021/07/31 01:04:52;;;;;;;10.43;2.83;;;14.90;99.90;;;;;;5116222;28;20035;-80
2021/07/31 01:07:19;;;;;;;7.30;2.45;;;14.90;99.90;;;;;;5133350;28;20031;-81
2021/07/31 01:09:46;;;;;;;7.72;2.40;;;14.80;99.90;;;;;;5099663;28;20052;-82
2021/07/31 01:12:13;;;;;;;7.72;2.40;;;14.80;99.90;;;;;;5133538;28;20061;-81
2021/07/31 01:14:41;;;;;;;6.18;2.65;;;14.80;99.90;;;;;;5150119;28;20495;-80
2021/07/31 01:17:11;;;;;;;8.70;2.65;;;14.80;99.90;;;;;;5133141;28;20071;-81
2021/07/31 01:19:39;;;;;;;8.95;2.72;;;14.80;99.90;;;;;;5134044;28;20092;-81
2021/07/31 01:22:06;;;;;;;4.93;2.55;;;14.70;99.90;;;;;;5150947;28;20118;-81
2021/07/31 01:24:33;;;;;;;6.78;2.70;;;14.80;99.90;;;;;;5133183;28;20119;-81
2021/07/31 01:27:00;;;;;;;7.75;2.88;;;14.70;99.90;;;;;;5132514;28;20092;-82
2021/07/31 01:29:27;;;;;;;10.32;2.47;;;14.70;99.90;;;;;;5150416;28;20426;-82
2021/07/31 01:31:54;;;;;;;6.40;2.70;;;14.70;99.90;;;;;;5132587;28;20039;-81
2021/07/31 01:34:21;;;;;;;8.30;2.88;;;14.70;99.90;;;;;;5132793;28;20044;-81
2021/07/31 01:36:47;;;;;;;5.15;2.88;;;14.70;99.90;;;;;;5132695;28;20085;-82
2021/07/31 01:39:15;;;;;;;7.57;3.00;;;14.70;99.90;;;;;;5133123;28;20035;-82
2021/07/31 01:41:42;;;;;;;9.75;2.72;;;14.70;99.90;;;;;;5150988;28;20059;-82
2021/07/31 01:44:09;;;;;;;9.82;2.85;;;14.70;99.90;;;;;;5115686;28;20032;-82
2021/07/31 01:46:36;;;;;;;8.18;3.03;;;14.70;99.90;;;;;;5133099;28;20028;-82
2021/07/31 01:49:03;;;;;;;9.20;2.92;;;14.80;99.90;;;;;;5150748;28;20035;-82
2021/07/31 01:51:33;;;;;;;12.40;3.35;;;14.80;99.90;;;;;;5149591;28;20047;-81
2021/07/31 01:54:00;;;;;;;9.88;3.50;;;14.80;99.90;;;;;;5132291;28;20106;-81
2021/07/31 01:56:27;;;;;;;7.38;2.90;;;14.80;99.90;;;;;;5115645;28;20058;-82
2021/07/31 01:58:54;;;;;;;12.93;3.80;;;14.80;99.90;;;;;;5115440;28;20038;-82
2021/07/31 02:01:20;;;;;;;7.93;3.20;;;14.80;99.90;;;;;;5115803;28;20126;-81
2021/07/31 02:03:47;;;;;;;9.30;3.72;;;14.80;99.90;;;;;;5115918;28;20384;-82
2021/07/31 02:06:14;;;;;;;7.90;3.33;;;14.80;99.90;;;;;;5115372;28;20035;-82
2021/07/31 02:08:42;;;;;;;9.55;3.70;;;14.90;99.90;;;;;;5132041;28;20472;-82
2021/07/31 02:11:10;;;;;;;9.38;4.35;;;14.90;99.90;;;;;;5115515;28;20497;-82
2021/07/31 02:13:37;;;;;;;8.52;3.47;;;14.90;99.90;;;;;;5116575;28;20043;-81
2021/07/31 02:16:04;;;;;;;11.23;4.20;;;14.90;99.90;;;;;;5115299;28;20039;-81
2021/07/31 02:18:31;;;;;;;11.40;3.78;;;14.90;99.90;;;;;;5132042;28;20042;-80
2021/07/31 02:20:58;;;;;;;10.60;3.90;;;14.90;99.90;;;;;;5148655;28;20119;-80
2021/07/31 02:23:25;;;;;;;9.85;3.67;;;14.90;99.90;;;;;;5115376;28;20127;-81
2021/07/31 02:25:52;;;;;;;11.75;4.28;;;14.90;99.90;;;;;;5148915;28;20089;-81
2021/07/31 02:28:19;;;;;;;10.77;3.75;;;14.90;99.90;;;;;;5148914;28;20035;-81
2021/07/31 02:30:45;;;;;;;11.02;4.00;;;14.90;99.90;;;;;;5131979;28;20047;-81
2021/07/31 02:33:13;;;;;;;10.63;4.00;;;14.80;99.90;;;;;;5131535;28;20075;-80
2021/07/31 02:35:40;;;;;;;10.95;3.80;;;14.90;99.90;;;;;;5114974;28;20093;-81
2021/07/31 02:38:06;;;;;;;10.77;4.05;;;14.90;99.90;;;;;;5114734;28;20039;-81
2021/07/31 02:40:33;;;;;;;13.93;3.97;;;14.90;99.90;;;;;;5114673;28;20043;-81
2021/07/31 02:43:00;;;;;;;8.30;3.85;;;14.90;99.90;;;;;;5114639;28;20075;-81
2021/07/31 02:45:27;;;;;;;12.13;4.28;;;15.00;99.90;;;;;;5132236;28;20039;-81
2021/07/31 02:47:53;;;;;;;9.63;4.18;;;14.90;99.90;;;;;;5147778;28;20031;-82
2021/07/31 02:50:20;;;;;;;10.95;3.90;;;14.90;99.90;;;;;;5131779;28;20100;-82
2021/07/31 02:52:47;;;;;;;13.55;4.47;;;14.90;99.90;;;;;;5114698;28;20044;-82
2021/07/31 02:55:14;;;;;;;11.13;4.40;;;14.90;99.90;;;;;;5114501;28;20457;-81
2021/07/31 02:57:41;;;;;;;11.13;4.70;;;14.90;99.90;;;;;;5114758;28;20036;-82
2021/07/31 03:00:08;;;;;;;12.07;4.80;;;15.00;99.90;;;;;;5131159;28;20074;-81
2021/07/31 03:02:35;;;;;;;11.40;5.00;;;14.90;99.90;;;;;;5131382;28;20040;-80
2021/07/31 03:05:02;;;;;;;11.40;4.85;;;14.90;99.90;;;;;;5097531;28;20051;-81
2021/07/31 03:07:29;;;;;;;11.38;5.22;;;14.90;99.90;;;;;;5130342;28;20040;-81
2021/07/31 03:09:56;;;;;;;11.70;4.47;;;14.90;99.90;;;;;;5114273;28;20071;-81
2021/07/31 03:12:23;;;;;;;8.90;4.30;;;14.90;99.90;;;;;;5114696;28;20035;-81
2021/07/31 03:14:50;;;;;;;13.05;4.80;;;14.90;99.90;;;;;;5131339;28;20447;-81
2021/07/31 03:17:17;;;;;;;13.30;4.95;;;14.90;99.90;;;;;;5113963;28;20472;-81
2021/07/31 03:19:44;;;;;;;14.75;4.63;;;14.90;99.90;;;;;;5148413;28;20035;-80
2021/07/31 03:22:11;;;;;;;17.85;5.47;;;14.90;99.90;;;;;;5130637;28;20039;-80
2021/07/31 03:24:38;;;;;;;9.60;5.00;;;15.00;99.90;;;;;;5113985;28;20035;-80
2021/07/31 03:27:06;;;;;;;12.52;4.30;;;14.90;99.90;;;;;;5113474;28;20483;-80
2021/07/31 03:29:33;;;;;;;11.30;4.68;;;15.00;99.90;;;;;;5147490;28;20032;-81
2021/07/31 03:32:00;;;;;;;12.05;4.40;;;15.00;99.90;;;;;;5113977;28;20036;-80
2021/07/31 03:34:27;;;;;;;9.25;4.82;;;15.00;99.90;;;;;;5114108;28;20421;-82
2021/07/31 03:36:55;;;;;;;14.65;5.00;;;15.00;99.90;;;;;;5147870;28;20115;-81
2021/07/31 03:39:23;;;;;;;11.73;4.70;;;15.00;99.90;;;;;;5113819;28;20043;-82
2021/07/31 03:41:51;;;;;;;12.60;5.10;;;15.00;99.90;;;;;;5147577;28;20039;-81
2021/07/31 03:44:18;;;;;;;10.07;4.95;;;15.10;99.90;;;;;;5130175;28;20039;-79
2021/07/31 03:46:45;;;;;;;13.27;4.78;;;15.10;99.90;;;;;;5130611;28;20038;-81
2021/07/31 03:49:13;;;;;;;10.32;5.30;;;15.10;99.90;;;;;;5130309;28;20036;-80
2021/07/31 03:51:40;;;;;;;11.70;5.32;;;15.10;99.90;;;;;;5129710;28;20059;-81
2021/07/31 03:54:07;;;;;;;13.80;5.75;;;15.10;99.90;;;;;;5148067;28;20590;-80
2021/07/31 03:56:34;;;;;;;9.20;4.95;;;15.10;99.90;;;;;;5130556;28;20063;-81
2021/07/31 03:59:01;;;;;;;13.68;5.78;;;15.10;99.90;;;;;;5130680;28;20036;-81
2021/07/31 04:01:29;;;;;;;10.38;4.95;;;15.10;99.90;;;;;;5113644;28;20044;-81
2021/07/31 04:03:56;;;;;;;11.18;5.22;;;15.10;99.90;;;;;;5130083;28;20034;-79
2021/07/31 04:06:23;;;;;;;11.43;5.28;;;15.10;99.90;;;;;;5113418;28;20031;-80
2021/07/31 04:08:49;;;;;;;15.00;5.57;;;15.10;99.90;;;;;;5130430;28;20043;-83
2021/07/31 04:11:17;;;;;;;10.75;5.22;;;15.10;99.90;;;;;;5113310;28;20044;-81
2021/07/31 04:13:45;;;;;;;10.82;5.13;;;15.20;99.90;;;;;;5115379;28;20036;-79
2021/07/31 04:16:12;;;;;;;14.45;5.38;;;15.20;99.90;;;;;;5095437;28;20039;-81
2021/07/31 04:18:39;;;;;;;11.77;5.95;;;15.20;99.90;;;;;;5146915;28;20106;-82
2021/07/31 04:21:07;;;;;;;13.63;5.90;;;15.20;99.90;;;;;;5114058;28;20085;-81
2021/07/31 04:23:35;;;;;;;13.38;6.13;;;15.20;99.90;;;;;;5116916;28;20040;-83
2021/07/31 04:26:10;;;;;;;16.08;6.90;;;15.10;99.90;;;;;;5114282;28;20119;-82
2021/07/31 04:28:37;;;;;;;15.43;6.72;;;15.10;99.90;;;;;;5113853;28;20105;-83
2021/07/31 04:31:22;;;;;;;15.13;6.75;;;15.10;99.90;;;;;;5113821;28;20036;-81
2021/07/31 04:33:52;;;;;;;13.45;6.05;;;15.10;99.90;;;;;;5130838;28;20040;-82
2021/07/31 04:36:18;;;;;;;11.85;6.00;;;15.10;99.90;;;;;;5113781;28;20110;-81
2021/07/31 04:38:45;;;;;;;11.57;6.10;;;15.10;99.90;;;;;;5113838;28;20461;-80
2021/07/31 04:41:12;;;;;;;11.60;6.00;;;15.10;99.90;;;;;;5113255;28;20066;-82
2021/07/31 04:43:39;;;;;;;11.27;5.82;;;15.10;99.90;;;;;;5130451;28;20047;-81
2021/07/31 04:46:05;;;;;;;11.25;5.30;;;15.10;99.90;;;;;;5139930;28;20036;-81
2021/07/31 04:48:32;;;;;;;10.85;5.70;;;15.10;99.90;;;;;;5139774;28;20039;-81
2021/07/31 04:51:01;;;;;;;12.77;5.88;;;15.20;99.90;;;;;;5096990;28;20052;-81
2021/07/31 04:53:28;;;;;;;10.10;5.38;;;15.20;99.90;;;;;;5130838;28;20040;-82
2021/07/31 04:55:56;;;;;;;11.20;5.88;;;15.20;99.90;;;;;;5130340;28;20032;-82
2021/07/31 04:58:23;;;;;;;12.60;5.40;;;15.20;99.90;;;;;;5124558;28;20437;-83
2021/07/31 05:00:51;;;;;;;14.70;5.95;;;15.20;99.90;;;;;;5117919;28;20485;-84
2021/07/31 05:03:18;;;;;;;16.88;5.90;;;15.20;99.90;;;;;;5147668;28;20408;-84
2021/07/31 05:05:45;;;;;;;10.55;5.80;;;15.20;99.90;;;;;;5116547;28;20035;-83
2021/07/31 05:08:13;;;;;;;15.70;6.72;;;15.20;99.90;;;;;;5130000;28;20047;-83
2021/07/31 05:10:41;;;;;;;16.65;5.88;;;15.20;99.90;;;;;;5113374;28;20119;-80
2021/07/31 05:13:09;;;;;;;11.18;5.68;;;15.20;99.90;;;;;;5113077;28;20040;-82
2021/07/31 05:15:37;;;;;;;14.85;6.63;;;15.20;99.90;;;;;;5112704;28;20434;-81
2021/07/31 05:18:09;;;;;;;13.50;5.95;;;15.20;99.90;;;;;;5130269;28;20534;-83
2021/07/31 05:20:40;;;;;;;11.18;6.10;;;15.10;99.90;;;;;;5129374;28;20040;-82
2021/07/31 05:23:07;;;;;;;14.95;6.18;;;15.20;99.90;;;;;;5113240;28;20032;-82
2021/07/31 05:25:35;;;;;;;16.42;6.55;;;15.10;99.90;;;;;;5129346;28;20040;-82
2021/07/31 05:28:02;;;;;;;12.73;6.20;;;15.10;99.90;;;;;;5130033;28;20036;-83
2021/07/31 05:30:28;;;;;;;12.85;5.53;;;15.10;99.90;;;;;;5129568;28;20032;-85
2021/07/31 05:32:55;;;;;;;15.23;6.63;;;15.20;99.90;;;;;;5113217;28;20077;-85
2021/07/31 05:35:22;;;;;;;12.93;6.00;;;15.20;99.90;;;;;;5079397;28;20047;-84
2021/07/31 05:37:49;;;;;;;18.05;5.60;;;15.20;99.90;;;;;;5096173;28;20036;-82
2021/07/31 05:40:17;;;;;;;14.63;5.55;;;15.20;99.90;;;;;;5112866;28;20473;-80
2021/07/31 05:42:43;;;;;;;17.45;5.68;;;15.20;99.90;;;;;;5112454;28;20063;-83
2021/07/31 05:45:10;;;;;;;12.50;5.05;;;15.20;99.90;;;;;;5095779;28;20032;-86
2021/07/31 05:47:37;;;;;;;13.32;5.22;;;15.30;99.90;;;;;;5112102;28;20499;-83
2021/07/31 05:50:07;;;;;;;13.50;4.97;;;15.30;99.90;;;;;;5112741;28;20158;-84
2021/07/31 05:52:36;;;;;;;14.45;5.20;;;15.40;99.90;;;;;;5112271;28;20105;-84
2021/07/31 05:55:04;;;;;;;13.63;5.57;;;15.40;99.90;;;;;;5112830;28;20036;-84
2021/07/31 05:57:31;;;;;;;13.73;4.93;;;15.50;99.90;;;;;;5128863;28;20089;-83
2021/07/31 05:59:58;;;;;;;14.50;3.88;;;15.60;99.90;;;;;;5134638;28;20040;-81
2021/07/31 06:02:25;;;;;;;12.07;4.60;;;15.60;99.90;;;;;;5119226;28;20393;-82
2021/07/31 06:04:52;;;;;;;13.35;4.25;;;15.70;99.90;;;;;;5113100;28;20038;-82
2021/07/31 06:07:19;;;;;;;16.27;5.18;;;15.80;99.90;;;;;;5146829;28;20043;-82
2021/07/31 06:09:55;;;;;;;13.82;4.78;;;15.90;99.90;;;;;;5115268;28;20039;-79
2021/07/31 06:12:22;;;;;;;18.17;4.40;;;15.90;99.90;;;;;;5133362;28;20035;-82
2021/07/31 06:14:50;;;;;;;17.10;4.35;;;15.90;99.90;;;;;;5123561;28;20036;-82
2021/07/31 06:17:17;;;;;;;15.27;4.45;;;15.90;99.90;;;;;;5132210;28;20034;-81
2021/07/31 06:19:44;;;;;;;16.70;4.43;;;15.90;99.90;;;;;;5148730;28;20035;-82
2021/07/31 06:22:11;;;;;;;16.50;4.05;;;15.90;99.90;;;;;;5115612;28;20042;-83
2021/07/31 06:24:38;;;;;;;11.07;3.55;;;15.90;99.90;;;;;;5131530;28;20115;-83
2021/07/31 06:27:05;;;;;;;9.50;3.90;;;16.00;99.90;;;;;;5114935;28;20084;-81
2021/07/31 06:29:33;;;;;;;13.02;3.53;;;16.00;99.90;;;;;;5142878;28;20055;-81
2021/07/31 06:32:01;;;;;;;14.90;4.03;;;16.10;99.90;;;;;;5132093;28;20042;-79
2021/07/31 06:34:28;;;;;;;10.85;3.40;;;16.10;99.90;;;;;;5148475;28;20043;-80
2021/07/31 06:36:55;;;;;;;18.42;4.07;;;16.10;99.90;;;;;;5148618;28;20044;-83
2021/07/31 06:39:22;;;;;;;18.13;4.75;;;16.00;99.90;;;;;;5149622;28;20040;-85
2021/07/31 06:41:49;;;;;;;19.17;4.97;;;16.00;99.90;;;;;;5114776;28;20036;-84
2021/07/31 06:44:15;;;;;;;13.65;4.00;;;15.90;99.90;;;;;;5131693;28;20040;-82
2021/07/31 06:46:42;;;;;;;15.25;4.70;;;15.80;99.90;;;;;;5131372;28;20053;-84
2021/07/31 06:49:09;;;;;;;13.75;4.22;;;15.80;99.90;;;;;;5109183;28;20039;-83
2021/07/31 06:51:39;;;;;;;17.73;4.57;;;15.80;99.90;;;;;;5100499;28;20055;-81
2021/07/31 06:54:05;;;;;;;12.73;4.18;;;15.80;99.90;;;;;;5127926;28;20044;-83
2021/07/31 06:56:34;;;;;;;8.57;3.72;;;15.90;99.90;;;;;;5123001;28;20115;-81
2021/07/31 06:59:02;;;;;;;13.65;4.47;;;15.90;99.90;;;;;;5149787;28;20036;-83
2021/07/31 07:01:28;;;;;;;12.32;4.32;;;15.80;99.90;;;;;;5147779;28;20043;-83
2021/07/31 07:03:55;;;;;;;13.32;4.28;;;15.70;99.90;;;;;;5114479;28;20502;-83
2021/07/31 07:06:22;;;;;;;12.63;4.57;;;15.70;99.90;;;;;;5138172;28;20039;-84
2021/07/31 07:08:49;;;;;;;14.52;5.05;;;15.70;99.90;;;;;;5093619;28;20036;-82
2021/07/31 07:11:17;;;;;;;16.30;4.70;;;15.80;99.90;;;;;;5110816;28;20476;-82
2021/07/31 07:13:44;;;;;;;14.18;4.72;;;15.90;99.90;;;;;;5134320;28;20380;-83
2021/07/31 07:16:14;;;;;;;15.30;4.80;;;16.00;99.90;;;;;;5113004;28;20053;-83
2021/07/31 07:18:41;;;;;;;11.63;4.30;;;16.20;99.90;;;;;;5127094;28;20111;-83
2021/07/31 07:21:10;;;;;;;13.32;4.03;;;16.40;99.90;;;;;;5138754;28;20050;-83
2021/07/31 07:23:37;;;;;;;14.55;4.22;;;16.70;99.90;;;;;;5126960;28;20042;-81
2021/07/31 07:26:09;;;;;;;11.48;3.60;;;16.80;99.90;;;;;;5128586;28;20392;-81
2021/07/31 07:28:37;;;;;;;13.50;3.92;;;16.90;99.90;;;;;;5127891;28;20036;-82
2021/07/31 07:31:04;;;;;;;12.00;3.33;;;16.90;99.90;;;;;;5128865;28;20039;-80
2021/07/31 07:33:31;;;;;;;14.55;3.75;;;16.90;99.90;;;;;;5143952;28;20038;-82
2021/07/31 07:35:58;;;;;;;17.55;4.00;;;16.90;99.90;;;;;;5104023;28;20036;-80
2021/07/31 07:38:25;;;;;;;11.25;3.10;;;16.90;99.90;;;;;;5093542;28;20085;-83
2021/07/31 07:40:52;;;;;;;16.15;3.70;;;16.90;99.90;;;;;;5109728;28;20040;-82
2021/07/31 07:43:19;;;;;;;12.15;3.72;;;16.90;99.90;;;;;;5125082;28;20403;-81
2021/07/31 07:45:45;;;;;;;11.30;2.83;;;16.80;99.90;;;;;;5129882;28;20484;-81
2021/07/31 07:48:12;;;;;;;10.40;2.80;;;16.70;99.90;;;;;;5124239;28;20051;-82
2021/07/31 07:50:39;;;;;;;16.45;3.20;;;16.60;99.90;;;;;;5096440;28;20032;-83
2021/07/31 07:53:06;;;;;;;18.05;3.88;;;16.60;99.90;;;;;;5124690;28;20404;-81
2021/07/31 07:55:33;;;;;;;17.45;3.65;;;16.50;99.90;;;;;;5129463;28;20521;-81
2021/07/31 07:57:59;;;;;;;19.15;3.78;;;16.40;99.90;;;;;;5130059;28;20036;-83
2021/07/31 08:00:26;;;;;;;16.98;3.90;;;16.30;99.90;;;;;;5130916;28;20047;-87
2021/07/31 08:02:53;;;;;;;14.18;3.55;;;16.20;99.90;;;;;;5112621;28;20039;-85
2021/07/31 08:05:20;;;;;;;13.60;3.92;;;16.10;99.90;;;;;;5093981;28;20040;-79
2021/07/31 08:07:46;;;;;;;15.05;3.67;;;16.10;99.90;;;;;;5127091;28;20036;-83
2021/07/31 08:10:13;;;;;;;13.02;3.33;;;16.10;99.90;;;;;;5110533;28;20047;-83
2021/07/31 08:12:40;;;;;;;20.80;3.97;;;16.10;99.90;;;;;;5092889;28;20036;-82
2021/07/31 08:15:08;;;;;;;12.50;3.40;;;16.20;99.90;;;;;;5127017;28;20103;-83
2021/07/31 08:17:35;;;;;;;15.77;3.63;;;16.20;99.90;;;;;;5126894;28;20032;-87
2021/07/31 08:20:04;;;;;;;12.57;3.42;;;16.30;99.90;;;;;;5127561;28;20387;-81
2021/07/31 08:22:31;;;;;;;12.15;3.60;;;16.40;99.90;;;;;;5104037;28;20517;-82
2021/07/31 08:24:58;;;;;;;14.27;3.75;;;16.50;99.90;;;;;;5113092;28;20074;-80
2021/07/31 08:27:25;;;;;;;14.10;3.72;;;16.70;99.90;;;;;;5130018;28;20063;-81
2021/07/31 08:29:51;;;;;;;11.93;2.92;;;16.90;99.90;;;;;;5146613;28;20066;-81
2021/07/31 08:32:18;;;;;;;11.00;3.22;;;17.10;99.90;;;;;;5118547;28;20045;-84
2021/07/31 08:34:45;;;;;;;10.45;2.83;;;17.20;99.90;;;;;;5093116;28;20032;-82
2021/07/31 08:37:12;;;;;;;11.68;3.30;;;17.20;99.90;;;;;;5110487;28;20082;-83
2021/07/31 08:39:39;;;;;;;9.63;2.85;;;17.20;99.90;;;;;;5109482;28;20468;-81
2021/07/31 08:42:06;;;;;;;11.65;2.92;;;17.10;99.90;;;;;;5133899;28;20035;-79
2021/07/31 08:44:34;;;;;;;15.70;3.40;;;16.90;99.90;;;;;;5146445;28;20035;-80
2021/07/31 08:47:03;;;;;;;12.00;3.45;;;16.90;99.90;;;;;;5143770;28;20039;-82
2021/07/31 08:49:34;;;;;;;10.75;3.00;;;16.80;99.90;;;;;;5124361;28;20123;-84
2021/07/31 08:52:03;;;;;;;11.15;3.00;;;16.60;99.90;;;;;;5146580;28;20044;-87
2021/07/31 08:54:30;;;;;;;14.10;3.78;;;16.30;99.90;;;;;;5147847;28;20441;-89
2021/07/31 08:56:57;;;;;;;12.40;3.25;;;16.30;99.90;;;;;;5130569;28;20039;-88
2021/07/31 08:59:26;;;;;;;9.45;2.47;;;16.20;99.90;;;;;;5147804;28;20042;-84
2021/07/31 09:01:53;;;;;;;5.78;1.85;;;15.90;99.90;;;;;;5146250;28;20040;-81
2021/07/31 09:04:20;;;;;;;7.53;2.15;;;15.80;99.90;;;;;;5130493;28;20031;-85
2021/07/31 09:06:46;;;;;;;10.10;3.60;;;15.90;99.90;;;;;;5131484;28;20047;-85
2021/07/31 09:09:14;;;;;;;9.82;3.15;;;16.00;99.90;;;;;;5113463;28;20036;-85
2021/07/31 09:12:04;;;;;;;12.23;3.25;;;16.10;99.90;;;;;;5130244;28;20042;-84
2021/07/31 09:14:32;;;;;;;11.25;3.35;;;16.20;99.90;;;;;;5131128;28;20032;-84
2021/07/31 09:16:59;;;;;;;9.85;3.10;;;16.20;99.90;;;;;;5113010;28;20032;-84
2021/07/31 09:19:28;;;;;;;10.48;3.63;;;16.20;99.90;;;;;;5113361;28;20115;-84
2021/07/31 09:22:07;;;;;;;12.32;3.45;;;16.50;99.90;;;;;;5115255;28;20063;-84
2021/07/31 09:24:34;;;;;;;11.48;2.60;;;16.90;99.90;;;;;;5150227;28;20461;-84
2021/07/31 09:27:02;;;;;;;12.70;3.42;;;17.10;99.90;;;;;;5132473;28;20028;-83
2021/07/31 09:29:35;;;;;;;13.13;3.45;;;17.40;99.90;;;;;;5116129;28;20373;-82
2021/07/31 09:32:06;;;;;;;13.13;3.50;;;17.50;99.90;;;;;;5115870;28;20070;-81
2021/07/31 09:34:36;;;;;;;11.02;3.00;;;17.60;99.90;;;;;;5150009;28;20551;-80
2021/07/31 09:37:25;;;;;;;9.10;3.33;;;17.40;99.90;;;;;;5146419;28;20071;-84
2021/07/31 09:40:00;;;;;;;15.43;3.10;;;17.30;99.90;;;;;;5150698;28;20051;-84
2021/07/31 09:42:36;;;;;;;15.65;3.65;;;17.20;99.90;;;;;;5149359;28;20036;-86
2021/07/31 09:45:06;;;;;;;17.17;4.20;;;17.00;99.90;;;;;;5149752;28;20123;-84
2021/07/31 09:47:34;;;;;;;8.90;2.40;;;16.90;99.90;;;;;;5133513;28;20110;-84
2021/07/31 09:50:01;;;;;;;8.43;2.17;;;16.60;99.90;;;;;;5150923;27;20130;-84
2021/07/31 09:52:28;;;;;;;7.75;2.40;;;16.40;99.90;;;;;;5150995;28;20060;-85
2021/07/31 09:54:59;;;;;;;8.10;2.22;;;16.30;99.90;;;;;;5150176;28;20027;-85
2021/07/31 09:57:28;;;;;;;7.75;2.47;;;16.30;99.90;;;;;;5151868;28;20042;-88
2021/07/31 09:59:58;;;;;;;11.57;3.08;;;16.40;99.90;;;;;;5150076;28;20047;-86
2021/07/31 10:02:27;;;;;;;17.75;3.20;;;16.40;99.90;;;;;;5150586;28;20031;-86
2021/07/31 10:04:54;;;;;;;10.50;2.92;;;16.60;99.90;;;;;;5150076;28;20035;-84
2021/07/31 10:07:21;;;;;;;12.43;2.92;;;16.80;99.90;;;;;;5133675;28;20080;-83
2021/07/31 10:09:49;;;;;;;11.57;2.90;;;16.90;99.90;;;;;;5133209;28;20051;-81
2021/07/31 10:12:22;;;;;;;9.27;2.92;;;17.00;99.90;;;;;;5132579;28;20463;-84
2021/07/31 10:14:50;;;;;;;13.00;2.55;;;17.00;99.90;;;;;;5132155;28;20403;-84
2021/07/31 10:17:25;;;;;;;7.78;2.10;;;17.10;99.90;;;;;;5115062;28;20123;-83
2021/07/31 10:19:52;;;;;;;8.15;2.78;;;17.10;99.90;;;;;;5131550;28;20036;-83
2021/07/31 10:22:43;;;;;;;12.70;2.35;;;17.10;99.90;;;;;;5094724;28;20036;-84
2021/07/31 10:25:21;;;;;;;8.82;2.53;;;17.20;99.90;;;;;;5128349;28;20086;-82
2021/07/31 10:27:49;;;;;;;7.00;2.40;;;17.20;99.90;;;;;;5124268;28;20032;-86
2021/07/31 10:30:25;;;;;;;12.15;2.88;;;17.20;99.90;;;;;;5123072;28;20036;-84
2021/07/31 10:32:52;;;;;;;12.70;3.38;;;17.00;99.90;;;;;;5129070;28;20036;-87
2021/07/31 10:35:30;;;;;;;18.58;3.60;;;17.00;99.90;;;;;;5115542;28;20028;-85
2021/07/31 10:38:03;;;;;;;14.82;3.63;;;16.80;99.90;;;;;;5145518;28;20053;-87
2021/07/31 10:40:31;;;;;;;14.32;3.08;;;16.70;99.90;;;;;;5147812;28;20115;-86
2021/07/31 10:42:58;;;;;;;12.93;3.22;;;16.70;99.90;;;;;;5136032;28;20040;-88
2021/07/31 10:45:29;;;;;;;13.35;3.13;;;16.60;99.90;;;;;;5132272;28;20039;-90
2021/07/31 10:47:56;;;;;;;9.70;2.90;;;16.60;99.90;;;;;;5137976;28;20494;-87
2021/07/31 10:50:23;;;;;;;11.00;2.97;;;16.60;99.90;;;;;;5134869;28;20039;-86
2021/07/31 10:52:54;;;;;;;10.55;2.78;;;16.60;99.90;;;;;;5133358;28;20385;-87
2021/07/31 10:55:26;;;;;;;12.93;3.38;;;16.70;99.90;;;;;;5128607;28;20485;-85
2021/07/31 10:57:52;;;;;;;7.35;2.63;;;16.70;99.90;;;;;;5095618;28;20051;-87
2021/07/31 11:00:22;;;;;;;8.52;2.58;;;16.90;99.90;;;;;;5127963;28;20036;-86
2021/07/31 11:02:53;;;;;;;10.45;3.13;;;16.90;99.90;;;;;;5128994;28;20044;-85
2021/07/31 11:05:21;;;;;;;8.45;3.15;;;16.90;99.90;;;;;;5128106;28;20063;-87
2021/07/31 11:08:06;;;;;;;9.75;2.97;;;16.90;99.90;;;;;;5111857;28;20104;-87
2021/07/31 11:10:41;;;;;;;14.65;4.13;;;16.90;99.90;;;;;;5128847;28;20100;-86
2021/07/31 11:13:32;;;;;;;13.35;4.00;;;17.00;99.90;;;;;;5127953;28;20047;-85
2021/07/31 11:16:07;;;;;;;11.38;3.13;;;17.20;99.90;;;;;;5113535;28;20077;-85
2021/07/31 11:18:37;;;;;;;9.70;3.08;;;17.50;99.90;;;;;;5127983;28;20528;-84
2021/07/31 11:21:15;;;;;;;11.90;3.03;;;17.70;99.90;;;;;;5126005;28;20055;-84
2021/07/31 11:23:46;;;;;;;15.55;4.30;;;17.70;99.90;;;;;;5137154;28;20479;-85
2021/07/31 11:26:30;;;;;;;8.38;2.60;;;17.70;99.90;;;;;;5147722;28;20483;-85
2021/07/31 11:28:57;;;;;;;12.55;3.95;;;17.80;99.90;;;;;;5148692;28;20035;-85
2021/07/31 11:31:24;;;;;;;14.55;4.85;;;17.90;99.90;;;;;;5127426;28;20048;-84
2021/07/31 11:34:06;;;;;;;14.20;3.92;;;18.10;99.90;;;;;;5127528;28;20039;-85
2021/07/31 11:36:33;;;;;;;13.90;2.95;;;18.30;99.90;;;;;;5127511;28;20382;-84
2021/07/31 11:39:01;;;;;;;10.57;3.40;;;18.30;99.90;;;;;;5110920;28;20426;-84
2021/07/31 11:41:29;;;;;;;13.95;3.55;;;18.30;99.90;;;;;;5111007;28;20472;-84
2021/07/31 11:43:58;;;;;;;11.18;3.00;;;18.40;99.90;;;;;;5111038;28;20526;-84
2021/07/31 11:46:28;;;;;;;15.30;3.58;;;18.50;99.90;;;;;;5126866;28;20028;-85
2021/07/31 11:48:59;;;;;;;14.10;3.35;;;18.60;99.90;;;;;;5128547;28;20032;-83
2021/07/31 11:51:27;;;;;;;9.55;2.83;;;18.70;99.90;;;;;;5126710;28;20127;-84
2021/07/31 11:53:55;;;;;;;15.32;3.42;;;18.60;99.90;;;;;;5127201;28;20032;-84
2021/07/31 11:56:25;;;;;;;13.40;3.25;;;18.50;99.90;;;;;;5128182;28;20028;-85
2021/07/31 11:58:56;;;;;;;15.20;3.38;;;18.40;99.90;;;;;;5127303;28;20057;-85
2021/07/31 12:01:23;;;;;;;9.88;3.00;;;18.40;99.90;;;;;;5112627;28;20046;-82
2021/07/31 12:03:51;;;;;;;6.60;2.95;;;18.40;99.90;;;;;;5127899;28;20040;-84
2021/07/31 12:06:36;;;;;;;7.65;2.80;;;18.30;99.90;;;;;;5130294;28;20043;-82
2021/07/31 12:09:26;;;;;;;6.88;2.92;;;18.20;99.90;;;;;;5139044;28;20032;-84
2021/07/31 12:11:57;;;;;;;10.38;2.70;;;18.20;99.90;;;;;;5118050;28;20040;-83
2021/07/31 12:14:38;;;;;;;8.65;2.92;;;18.20;99.90;;;;;;5135913;28;20036;-83
2021/07/31 12:17:15;;;;;;;8.55;2.65;;;18.30;99.90;;;;;;5131976;28;20040;-84
2021/07/31 12:19:45;;;;;;;7.50;3.00;;;18.60;99.90;;;;;;5147256;28;20028;-84
2021/07/31 12:22:18;;;;;;;8.70;2.95;;;18.90;99.90;;;;;;5146766;28;20048;-83
2021/07/31 12:25:05;;;;;;;8.02;3.10;;;19.10;99.90;;;;;;5144374;28;20027;-84
2021/07/31 12:27:56;;;;;;;6.80;2.90;;;19.20;99.90;;;;;;5141930;28;20472;-83
2021/07/31 12:30:27;;;;;;;11.70;3.55;;;19.30;99.90;;;;;;5146762;28;20560;-83
2021/07/31 12:32:58;;;;;;;7.60;2.80;;;19.50;99.90;;;;;;5147778;28;20047;-82
2021/07/31 12:35:53;;;;;;;8.43;2.90;;;19.50;99.90;;;;;;5108197;28;20093;-81
2021/07/31 12:38:23;;;;;;;9.50;3.60;;;19.50;99.90;;;;;;5137902;28;20028;-82
2021/07/31 12:40:54;;;;;;;8.73;3.25;;;19.50;99.90;;;;;;5149071;28;20035;-82
2021/07/31 12:43:23;;;;;;;7.07;3.30;;;19.70;99.90;;;;;;5151522;28;20043;-82
2021/07/31 12:45:55;;;;;;;7.30;3.10;;;19.90;99.90;;;;;;5148820;28;20036;-79
2021/07/31 12:48:22;;;;;;;5.75;2.70;;;20.10;99.90;;;;;;5120061;28;20044;-80